createdAt,value
2023-11-23T00:04:26.102Z,60.40
2023-11-23T00:09:33.818Z,54.70
2023-11-23T00:14:41.145Z,46.20
2023-11-23T00:19:48.958Z,52.90
2023-11-23T00:24:56.631Z,47.90
2023-11-23T00:30:04.182Z,56.80
2023-11-23T00:35:11.960Z,52.40
2023-11-23T00:40:19.618Z,56.10
2023-11-23T00:45:27.009Z,49.50
2023-11-23T00:50:34.673Z,53.70
2023-11-23T00:55:42.076Z,52.30
2023-11-23T01:00:49.619Z,53.50
2023-11-23T01:05:57.413Z,55.20
2023-11-23T01:11:04.742Z,52.40
2023-11-23T01:16:13.247Z,55.30
2023-11-23T01:21:21.224Z,53.90
2023-11-23T01:26:28.514Z,48.60
2023-11-23T01:31:36.011Z,51.60
2023-11-23T01:36:43.324Z,38.40
2023-11-23T01:41:50.669Z,47.90
2023-11-23T01:46:59.618Z,49.40
2023-11-23T01:52:07.640Z,42.60
2023-11-23T01:57:17.225Z,44.00
2023-11-23T02:02:24.574Z,49.40
2023-11-23T02:07:31.809Z,44.40
2023-11-23T02:12:39.867Z,47.00
2023-11-23T02:17:47.375Z,44.00
2023-11-23T02:22:54.770Z,42.60
2023-11-23T02:28:02.049Z,41.60
2023-11-23T02:33:12.597Z,42.60
2023-11-23T02:38:19.999Z,43.50
2023-11-23T02:43:27.992Z,43.00
2023-11-23T02:48:35.375Z,42.50
2023-11-23T02:53:45.404Z,42.20
2023-11-23T02:58:52.955Z,43.60
2023-11-23T03:04:00.670Z,39.50
2023-11-23T03:09:09.789Z,40.90
2023-11-23T03:14:17.850Z,39.60
2023-11-23T03:19:25.052Z,39.80
2023-11-23T03:24:32.844Z,39.30
2023-11-23T03:29:40.281Z,40.40
2023-11-23T03:34:47.863Z,37.40
2023-11-23T03:39:56.552Z,39.50
2023-11-23T03:45:04.967Z,37.00
2023-11-23T03:50:12.810Z,38.40
2023-11-23T03:55:20.210Z,39.70
2023-11-23T04:00:29.251Z,36.70
2023-11-23T04:05:38.643Z,39.70
2023-11-23T04:10:46.068Z,36.40
2023-11-23T04:15:53.305Z,33.80
2023-11-23T04:21:00.700Z,34.20
2023-11-23T04:26:09.277Z,35.90
2023-11-23T04:31:16.407Z,37.00
2023-11-23T04:36:24.759Z,37.40
2023-11-23T04:41:32.006Z,37.00
2023-11-23T04:46:39.403Z,36.40
2023-11-23T04:51:46.719Z,35.10
2023-11-23T04:56:54.393Z,34.40
2023-11-23T05:02:04.102Z,34.50
2023-11-23T05:07:11.585Z,32.40
2023-11-23T05:12:19.251Z,29.10
2023-11-23T05:17:26.531Z,28.30
2023-11-23T05:22:34.410Z,26.80
2023-11-23T05:27:41.798Z,24.70
2023-11-23T05:32:49.293Z,29.90
2023-11-23T05:37:56.585Z,27.40
2023-11-23T05:43:06.175Z,24.30
2023-11-23T05:48:13.992Z,25.80
2023-11-23T05:53:21.235Z,26.30
2023-11-23T05:58:29.210Z,26.20
2023-11-23T06:03:38.472Z,26.60
2023-11-23T06:08:45.744Z,27.90
2023-11-23T06:13:53.023Z,23.60
2023-11-23T06:19:03.518Z,24.20
2023-11-23T06:24:12.535Z,23.90
2023-11-23T06:29:19.992Z,25.00
2023-11-23T06:34:27.431Z,21.40
2023-11-23T06:39:38.291Z,20.90
2023-11-23T06:44:45.689Z,22.50
2023-11-23T06:49:53.061Z,19.70
2023-11-23T06:55:00.452Z,20.30
2023-11-23T07:00:18.365Z,20.90
2023-11-23T07:05:26.662Z,21.60
2023-11-23T07:10:35.740Z,15.70
2023-11-23T07:15:43.241Z,18.00
2023-11-23T07:20:54.651Z,18.80
2023-11-23T07:26:02.204Z,17.60
2023-11-23T07:31:10.675Z,16.50
2023-11-23T07:36:18.277Z,15.50
2023-11-23T07:41:25.737Z,14.80
2023-11-23T07:46:33.425Z,14.80
2023-11-23T07:51:41.144Z,14.90
2023-11-23T07:56:49.448Z,13.90
2023-11-23T08:01:57.933Z,17.70
2023-11-23T08:07:05.582Z,20.00
2023-11-23T08:12:13.310Z,15.20
2023-11-23T08:17:20.664Z,19.30
2023-11-23T08:22:28.162Z,17.20
2023-11-23T08:27:36.622Z,18.10
2023-11-23T08:32:45.361Z,15.70
2023-11-23T08:37:52.709Z,16.50
2023-11-23T08:43:00.435Z,15.30
2023-11-23T08:48:09.380Z,14.70
2023-11-23T08:53:17.370Z,14.50
2023-11-23T08:58:25.739Z,12.80
2023-11-23T09:03:34.143Z,12.80
2023-11-23T09:08:42.840Z,12.40
2023-11-23T09:13:50.217Z,12.00
2023-11-23T09:19:34.363Z,11.90
2023-11-23T09:24:41.939Z,11.80
2023-11-23T09:29:49.792Z,12.50
2023-11-23T09:34:57.550Z,12.10
2023-11-23T09:40:06.622Z,12.10
2023-11-23T09:45:19.147Z,11.70
2023-11-23T09:50:34.027Z,10.00
2023-11-23T09:55:45.073Z,10.50
2023-11-23T10:00:53.749Z,9.70
2023-11-23T10:06:01.355Z,8.10
2023-11-23T10:11:09.406Z,8.60
2023-11-23T10:16:17.377Z,6.40
2023-11-23T10:21:25.346Z,6.10
2023-11-23T10:26:33.720Z,6.20
2023-11-23T10:31:41.210Z,7.00
2023-11-23T10:36:51.117Z,7.10
2023-11-23T10:41:58.761Z,7.20
2023-11-23T10:47:09.011Z,5.60
2023-11-23T10:52:19.677Z,5.40
2023-11-23T10:57:28.769Z,6.60
2023-11-23T11:02:36.575Z,4.60
2023-11-23T11:07:44.185Z,4.00
2023-11-23T11:12:52.571Z,5.10
2023-11-23T11:18:08.580Z,5.80
2023-11-23T11:23:16.117Z,7.00
2023-11-23T11:28:24.609Z,4.90
2023-11-23T11:33:33.684Z,4.80
2023-11-23T11:38:42.153Z,4.00
2023-11-23T11:43:50.824Z,5.00
2023-11-23T11:48:59.754Z,4.90
2023-11-23T11:54:08.357Z,4.30
2023-11-23T11:59:19.065Z,5.80
2023-11-23T12:04:26.589Z,5.00
2023-11-23T12:09:41.251Z,4.90
2023-11-23T12:14:51.457Z,5.00
2023-11-23T12:19:59.356Z,4.40
2023-11-23T12:25:10.539Z,5.00
2023-11-23T12:30:18.171Z,8.60
2023-11-23T12:35:27.737Z,6.50
2023-11-23T12:40:35.322Z,9.30
2023-11-23T12:45:44.750Z,9.50
2023-11-23T12:50:52.609Z,13.70
2023-11-23T12:56:00.578Z,11.70
2023-11-23T13:01:09.168Z,8.20
2023-11-23T13:06:17.553Z,8.60
2023-11-23T13:11:25.148Z,8.50
2023-11-23T13:16:32.929Z,10.50
2023-11-23T13:21:40.449Z,11.50
2023-11-23T13:26:48.307Z,13.80
2023-11-23T13:31:59.302Z,20.30
2023-11-23T13:37:07.030Z,16.00
2023-11-23T13:42:15.906Z,13.60
2023-11-23T13:47:25.345Z,13.00
2023-11-23T13:52:33.583Z,11.50
2023-11-23T13:57:41.297Z,8.40
2023-11-23T14:02:48.943Z,11.00
2023-11-23T14:07:57.232Z,10.80
2023-11-23T14:13:05.289Z,7.70
2023-11-23T14:18:14.789Z,8.00
2023-11-23T14:23:22.462Z,8.40
2023-11-23T14:28:29.992Z,11.00
2023-11-23T14:33:37.405Z,10.30
2023-11-23T14:38:44.884Z,11.00
2023-11-23T14:43:52.904Z,9.50
2023-11-23T14:49:00.217Z,10.40
2023-11-23T14:54:10.860Z,9.30
2023-11-23T14:59:20.147Z,10.20
2023-11-23T15:04:27.704Z,8.00
2023-11-23T15:09:35.331Z,8.40
2023-11-23T15:14:43.491Z,8.90
2023-11-23T15:19:51.741Z,10.90
2023-11-23T15:25:08.312Z,8.50
2023-11-23T15:30:18.225Z,7.50
2023-11-23T15:35:25.723Z,7.80
2023-11-23T15:40:33.007Z,8.60
2023-11-23T15:45:42.651Z,9.50
2023-11-23T15:50:50.509Z,9.50
2023-11-23T15:55:57.895Z,8.60
2023-11-23T16:01:09.309Z,7.50
2023-11-23T16:06:16.756Z,7.50
2023-11-23T16:11:24.029Z,9.30
2023-11-23T16:16:32.217Z,10.60
2023-11-23T16:21:41.459Z,8.50
2023-11-23T16:26:48.851Z,8.90
2023-11-23T16:32:01.746Z,9.70
2023-11-23T16:37:12.391Z,7.90
2023-11-23T16:42:20.223Z,6.40
2023-11-23T16:47:27.580Z,3.20
2023-11-23T16:52:35.015Z,3.00
2023-11-23T16:57:44.216Z,3.00
2023-11-23T17:02:51.560Z,3.20
2023-11-23T17:07:59.185Z,2.70
2023-11-23T17:13:07.854Z,2.60
2023-11-23T17:18:15.723Z,3.40
2023-11-23T17:23:23.144Z,3.80
2023-11-23T17:28:30.369Z,3.20
2023-11-23T17:33:38.326Z,3.30
2023-11-23T17:38:45.898Z,3.60
2023-11-23T17:43:53.237Z,4.00
2023-11-23T17:49:00.704Z,3.90
2023-11-23T17:54:09.085Z,3.00
2023-11-23T17:59:26.219Z,4.60
2023-11-23T18:04:42.037Z,2.80
2023-11-23T18:09:50.616Z,3.30
2023-11-23T18:14:58.037Z,3.10
2023-11-23T18:20:06.724Z,1.90
2023-11-23T18:25:14.091Z,2.60
2023-11-23T18:30:22.205Z,3.80
2023-11-23T18:35:29.608Z,2.90
2023-11-23T18:40:37.168Z,2.40
2023-11-23T18:45:44.474Z,3.40
2023-11-23T18:50:51.883Z,3.20
2023-11-23T18:55:59.139Z,3.60
2023-11-23T19:01:06.841Z,4.00
2023-11-23T19:06:14.511Z,2.10
2023-11-23T19:11:21.881Z,3.70
2023-11-23T19:16:29.321Z,4.90
2023-11-23T19:21:45.275Z,3.40
2023-11-23T19:26:54.237Z,6.70
2023-11-23T19:32:08.942Z,5.10
2023-11-23T19:37:17.730Z,4.30
2023-11-23T19:42:26.961Z,4.70
2023-11-23T19:47:35.234Z,3.90
2023-11-23T19:52:46.391Z,4.10
2023-11-23T19:57:53.845Z,3.20
2023-11-23T20:03:01.246Z,3.90
2023-11-23T20:08:13.814Z,3.90
2023-11-23T20:13:21.318Z,4.30
2023-11-23T20:18:29.766Z,4.00
2023-11-23T20:23:37.139Z,3.40
2023-11-23T20:28:45.183Z,3.70
2023-11-23T20:33:52.618Z,3.60
2023-11-23T20:39:00.195Z,3.30
2023-11-23T20:44:08.008Z,3.30
2023-11-23T20:49:15.555Z,3.10
2023-11-23T20:54:23.847Z,3.00
2023-11-23T20:59:32.045Z,3.90
2023-11-23T21:04:41.754Z,3.40
2023-11-23T21:09:51.518Z,3.00
2023-11-23T21:14:59.072Z,2.90
2023-11-23T21:20:07.859Z,2.40
2023-11-23T21:25:15.879Z,2.10
2023-11-23T21:30:23.574Z,2.30
2023-11-23T21:35:33.794Z,2.30
2023-11-23T21:40:41.671Z,2.60
2023-11-23T21:45:49.036Z,1.60
2023-11-23T21:50:56.366Z,2.20
2023-11-23T21:56:04.134Z,3.00
2023-11-23T22:01:12.267Z,2.40
2023-11-23T22:06:19.798Z,1.80
2023-11-23T22:11:27.404Z,1.80
2023-11-23T22:16:35.266Z,2.80
2023-11-23T22:21:45.894Z,2.80
2023-11-23T22:26:54.236Z,2.60
2023-11-23T22:32:02.502Z,2.60
2023-11-23T22:37:10.848Z,3.40
2023-11-23T22:42:19.504Z,3.20
2023-11-23T22:47:26.807Z,1.10
2023-11-23T22:52:34.267Z,0.70
2023-11-23T22:57:41.768Z,0.80
2023-11-23T23:02:49.299Z,1.00
2023-11-23T23:07:58.099Z,0.70
2023-11-23T23:13:05.715Z,0.80
2023-11-23T23:18:13.277Z,0.80
2023-11-23T23:23:20.743Z,0.80
2023-11-23T23:28:32.107Z,0.60
2023-11-23T23:33:40.227Z,0.80
2023-11-23T23:38:47.966Z,0.80
2023-11-23T23:43:55.261Z,0.70
2023-11-23T23:49:02.970Z,0.80
2023-11-23T23:54:10.513Z,0.80
2023-11-23T23:59:17.864Z,0.90
